sensor_id;sensor_type;location;lat;lon;timestamp;P1;durP1;ratioP1;P2;durP2;ratioP2
49942;SDS011;36011;53.362;58.948;2023-04-16T00:01:36;19.25;;;6.18;;
49942;SDS011;36011;53.362;58.948;2023-04-16T00:04:40;16.50;;;5.45;;
49942;SDS011;36011;53.362;58.948;2023-04-16T00:07:44;11.02;;;4.70;;
49942;SDS011;36011;53.362;58.948;2023-04-16T00:11:05;10.50;;;5.20;;
49942;SDS011;36011;53.362;58.948;2023-04-16T00:14:09;13.93;;;4.85;;
49942;SDS011;36011;53.362;58.948;2023-04-16T00:17:14;12.18;;;5.35;;
49942;SDS011;36011;53.362;58.948;2023-04-16T00:20:15;12.18;;;5.10;;
49942;SDS011;36011;53.362;58.948;2023-04-16T00:23:17;13.45;;;5.10;;
49942;SDS011;36011;53.362;58.948;2023-04-16T00:26:22;12.75;;;5.07;;
49942;SDS011;36011;53.362;58.948;2023-04-16T00:29:23;13.07;;;5.35;;
49942;SDS011;36011;53.362;58.948;2023-04-16T00:32:31;11.63;;;4.20;;
49942;SDS011;36011;53.362;58.948;2023-04-16T00:35:33;9.80;;;4.75;;
49942;SDS011;36011;53.362;58.948;2023-04-16T00:38:37;8.85;;;4.72;;
49942;SDS011;36011;53.362;58.948;2023-04-16T00:41:42;12.38;;;4.45;;
49942;SDS011;36011;53.362;58.948;2023-04-16T00:44:46;13.55;;;4.70;;
49942;SDS011;36011;53.362;58.948;2023-04-16T00:47:50;12.98;;;4.82;;
49942;SDS011;36011;53.362;58.948;2023-04-16T00:50:51;14.50;;;5.22;;
49942;SDS011;36011;53.362;58.948;2023-04-16T00:56:57;12.75;;;4.68;;
49942;SDS011;36011;53.362;58.948;2023-04-16T00:59:59;10.55;;;5.00;;
49942;SDS011;36011;53.362;58.948;2023-04-16T01:03:00;14.38;;;4.60;;
49942;SDS011;36011;53.362;58.948;2023-04-16T01:06:02;18.65;;;8.48;;
49942;SDS011;36011;53.362;58.948;2023-04-16T01:09:04;18.40;;;6.35;;
49942;SDS011;36011;53.362;58.948;2023-04-16T01:12:12;11.93;;;5.13;;
49942;SDS011;36011;53.362;58.948;2023-04-16T01:15:16;16.42;;;6.45;;
49942;SDS011;36011;53.362;58.948;2023-04-16T01:18:20;14.98;;;5.72;;
49942;SDS011;36011;53.362;58.948;2023-04-16T01:21:22;15.38;;;6.05;;
49942;SDS011;36011;53.362;58.948;2023-04-16T01:24:25;14.40;;;5.85;;
49942;SDS011;36011;53.362;58.948;2023-04-16T01:27:29;12.73;;;5.93;;
49942;SDS011;36011;53.362;58.948;2023-04-16T01:30:31;20.50;;;6.07;;
49942;SDS011;36011;53.362;58.948;2023-04-16T01:33:38;22.50;;;7.07;;
49942;SDS011;36011;53.362;58.948;2023-04-16T01:36:42;32.22;;;7.88;;
49942;SDS011;36011;53.362;58.948;2023-04-16T01:39:53;23.65;;;7.55;;
49942;SDS011;36011;53.362;58.948;2023-04-16T01:42:54;18.30;;;6.50;;
49942;SDS011;36011;53.362;58.948;2023-04-16T01:46:06;20.02;;;6.78;;
49942;SDS011;36011;53.362;58.948;2023-04-16T01:49:13;14.35;;;6.68;;
49942;SDS011;36011;53.362;58.948;2023-04-16T01:52:16;21.87;;;6.80;;
49942;SDS011;36011;53.362;58.948;2023-04-16T01:55:17;21.83;;;6.85;;
49942;SDS011;36011;53.362;58.948;2023-04-16T01:58:21;17.95;;;5.93;;
49942;SDS011;36011;53.362;58.948;2023-04-16T02:01:22;17.02;;;5.60;;
49942;SDS011;36011;53.362;58.948;2023-04-16T02:04:29;20.05;;;4.85;;
49942;SDS011;36011;53.362;58.948;2023-04-16T02:07:32;18.02;;;5.72;;
49942;SDS011;36011;53.362;58.948;2023-04-16T02:10:33;19.17;;;5.90;;
49942;SDS011;36011;53.362;58.948;2023-04-16T02:13:41;19.25;;;5.68;;
49942;SDS011;36011;53.362;58.948;2023-04-16T02:16:45;12.45;;;5.30;;
49942;SDS011;36011;53.362;58.948;2023-04-16T02:19:46;20.58;;;5.10;;
49942;SDS011;36011;53.362;58.948;2023-04-16T02:22:50;13.40;;;5.28;;
49942;SDS011;36011;53.362;58.948;2023-04-16T02:25:55;8.38;;;3.80;;
49942;SDS011;36011;53.362;58.948;2023-04-16T02:28:58;15.27;;;5.20;;
49942;SDS011;36011;53.362;58.948;2023-04-16T02:32:01;13.30;;;4.72;;
49942;SDS011;36011;53.362;58.948;2023-04-16T02:35:03;13.38;;;4.13;;
49942;SDS011;36011;53.362;58.948;2023-04-16T02:38:10;16.27;;;4.55;;
49942;SDS011;36011;53.362;58.948;2023-04-16T02:41:14;15.50;;;4.50;;
49942;SDS011;36011;53.362;58.948;2023-04-16T02:44:21;22.90;;;5.68;;
49942;SDS011;36011;53.362;58.948;2023-04-16T02:47:24;19.80;;;5.03;;
49942;SDS011;36011;53.362;58.948;2023-04-16T02:50:25;26.10;;;6.80;;
49942;SDS011;36011;53.362;58.948;2023-04-16T02:53:32;17.42;;;6.28;;
49942;SDS011;36011;53.362;58.948;2023-04-16T02:56:36;19.50;;;5.40;;
49942;SDS011;36011;53.362;58.948;2023-04-16T02:59:40;22.85;;;6.20;;
49942;SDS011;36011;53.362;58.948;2023-04-16T03:02:46;19.50;;;6.35;;
49942;SDS011;36011;53.362;58.948;2023-04-16T03:05:48;19.92;;;5.43;;
49942;SDS011;36011;53.362;58.948;2023-04-16T03:08:52;17.20;;;5.20;;
49942;SDS011;36011;53.362;58.948;2023-04-16T03:12:00;18.52;;;5.65;;
49942;SDS011;36011;53.362;58.948;2023-04-16T03:15:02;21.52;;;7.30;;
49942;SDS011;36011;53.362;58.948;2023-04-16T03:18:09;17.77;;;6.35;;
49942;SDS011;36011;53.362;58.948;2023-04-16T03:21:13;18.45;;;5.40;;
49942;SDS011;36011;53.362;58.948;2023-04-16T03:24:17;17.15;;;5.55;;
49942;SDS011;36011;53.362;58.948;2023-04-16T03:27:18;21.58;;;5.93;;
49942;SDS011;36011;53.362;58.948;2023-04-16T03:30:19;16.75;;;5.18;;
49942;SDS011;36011;53.362;58.948;2023-04-16T03:33:23;12.25;;;4.68;;
49942;SDS011;36011;53.362;58.948;2023-04-16T03:36:27;20.80;;;4.85;;
49942;SDS011;36011;53.362;58.948;2023-04-16T03:39:30;15.20;;;4.90;;
49942;SDS011;36011;53.362;58.948;2023-04-16T03:42:34;11.20;;;4.20;;
49942;SDS011;36011;53.362;58.948;2023-04-16T03:45:44;14.57;;;3.47;;
49942;SDS011;36011;53.362;58.948;2023-04-16T03:48:46;10.40;;;4.05;;
49942;SDS011;36011;53.362;58.948;2023-04-16T03:51:49;6.82;;;2.40;;
49942;SDS011;36011;53.362;58.948;2023-04-16T03:54:56;10.85;;;3.72;;
49942;SDS011;36011;53.362;58.948;2023-04-16T03:58:02;15.57;;;3.90;;
49942;SDS011;36011;53.362;58.948;2023-04-16T04:01:04;6.85;;;2.85;;
49942;SDS011;36011;53.362;58.948;2023-04-16T04:04:08;7.68;;;3.20;;
49942;SDS011;36011;53.362;58.948;2023-04-16T04:07:12;9.55;;;3.70;;
49942;SDS011;36011;53.362;58.948;2023-04-16T04:13:20;9.70;;;4.10;;
49942;SDS011;36011;53.362;58.948;2023-04-16T04:16:24;10.73;;;4.65;;
49942;SDS011;36011;53.362;58.948;2023-04-16T04:19:28;11.73;;;4.80;;
49942;SDS011;36011;53.362;58.948;2023-04-16T04:22:37;9.93;;;3.17;;
49942;SDS011;36011;53.362;58.948;2023-04-16T04:25:44;5.43;;;3.28;;
49942;SDS011;36011;53.362;58.948;2023-04-16T04:28:45;6.63;;;3.05;;
49942;SDS011;36011;53.362;58.948;2023-04-16T04:31:53;9.95;;;3.95;;
49942;SDS011;36011;53.362;58.948;2023-04-16T04:35:05;7.18;;;3.55;;
49942;SDS011;36011;53.362;58.948;2023-04-16T04:38:54;10.00;;;5.18;;
49942;SDS011;36011;53.362;58.948;2023-04-16T04:42:02;8.18;;;3.78;;
49942;SDS011;36011;53.362;58.948;2023-04-16T04:45:06;7.40;;;3.47;;
49942;SDS011;36011;53.362;58.948;2023-04-16T04:48:10;5.97;;;3.03;;
49942;SDS011;36011;53.362;58.948;2023-04-16T04:51:18;8.43;;;3.63;;
49942;SDS011;36011;53.362;58.948;2023-04-16T04:54:22;8.27;;;3.67;;
49942;SDS011;36011;53.362;58.948;2023-04-16T04:57:25;16.08;;;4.30;;
49942;SDS011;36011;53.362;58.948;2023-04-16T05:00:32;11.40;;;3.33;;
49942;SDS011;36011;53.362;58.948;2023-04-16T05:03:38;8.30;;;3.88;;
49942;SDS011;36011;53.362;58.948;2023-04-16T05:06:44;11.85;;;4.90;;
49942;SDS011;36011;53.362;58.948;2023-04-16T05:09:48;8.00;;;2.92;;
49942;SDS011;36011;53.362;58.948;2023-04-16T05:12:53;10.70;;;3.85;;
49942;SDS011;36011;53.362;58.948;2023-04-16T05:15:58;7.78;;;2.85;;
49942;SDS011;36011;53.362;58.948;2023-04-16T05:19:02;7.45;;;2.50;;
49942;SDS011;36011;53.362;58.948;2023-04-16T05:22:09;7.78;;;2.13;;
49942;SDS011;36011;53.362;58.948;2023-04-16T05:25:14;5.18;;;2.22;;
49942;SDS011;36011;53.362;58.948;2023-04-16T05:28:18;4.05;;;1.80;;
49942;SDS011;36011;53.362;58.948;2023-04-16T05:31:24;4.28;;;1.77;;
49942;SDS011;36011;53.362;58.948;2023-04-16T05:34:31;4.97;;;1.73;;
49942;SDS011;36011;53.362;58.948;2023-04-16T05:37:34;5.05;;;1.42;;
49942;SDS011;36011;53.362;58.948;2023-04-16T05:40:41;5.30;;;1.52;;
49942;SDS011;36011;53.362;58.948;2023-04-16T05:43:45;2.92;;;1.00;;
49942;SDS011;36011;53.362;58.948;2023-04-16T05:46:49;2.88;;;0.90;;
49942;SDS011;36011;53.362;58.948;2023-04-16T05:49:54;3.05;;;1.27;;
49942;SDS011;36011;53.362;58.948;2023-04-16T05:55:59;2.65;;;1.08;;
49942;SDS011;36011;53.362;58.948;2023-04-16T05:59:04;1.92;;;0.93;;
49942;SDS011;36011;53.362;58.948;2023-04-16T06:02:09;4.82;;;1.67;;
49942;SDS011;36011;53.362;58.948;2023-04-16T06:05:13;3.20;;;1.45;;
49942;SDS011;36011;53.362;58.948;2023-04-16T06:08:18;4.15;;;1.38;;
49942;SDS011;36011;53.362;58.948;2023-04-16T06:11:23;5.07;;;1.50;;
49942;SDS011;36011;53.362;58.948;2023-04-16T06:14:28;3.00;;;0.90;;
49942;SDS011;36011;53.362;58.948;2023-04-16T06:17:33;4.78;;;1.20;;
49942;SDS011;36011;53.362;58.948;2023-04-16T06:20:37;2.35;;;1.23;;
49942;SDS011;36011;53.362;58.948;2023-04-16T06:23:42;3.05;;;0.80;;
49942;SDS011;36011;53.362;58.948;2023-04-16T06:26:49;4.40;;;1.13;;
49942;SDS011;36011;53.362;58.948;2023-04-16T06:29:53;4.28;;;1.30;;
49942;SDS011;36011;53.362;58.948;2023-04-16T06:32:58;3.72;;;1.40;;
49942;SDS011;36011;53.362;58.948;2023-04-16T06:36:03;2.38;;;1.20;;
49942;SDS011;36011;53.362;58.948;2023-04-16T06:39:08;4.72;;;1.50;;
49942;SDS011;36011;53.362;58.948;2023-04-16T06:42:13;5.68;;;1.48;;
49942;SDS011;36011;53.362;58.948;2023-04-16T06:45:16;5.10;;;1.58;;
49942;SDS011;36011;53.362;58.948;2023-04-16T06:48:21;3.15;;;1.00;;
49942;SDS011;36011;53.362;58.948;2023-04-16T06:51:24;3.95;;;1.13;;
49942;SDS011;36011;53.362;58.948;2023-04-16T06:54:29;3.95;;;1.17;;
49942;SDS011;36011;53.362;58.948;2023-04-16T06:57:34;2.88;;;1.30;;
49942;SDS011;36011;53.362;58.948;2023-04-16T07:00:39;6.22;;;1.38;;
49942;SDS011;36011;53.362;58.948;2023-04-16T07:04:10;4.13;;;1.58;;
49942;SDS011;36011;53.362;58.948;2023-04-16T07:07:14;3.97;;;1.42;;
49942;SDS011;36011;53.362;58.948;2023-04-16T07:10:19;6.07;;;2.83;;
49942;SDS011;36011;53.362;58.948;2023-04-16T07:13:24;3.92;;;1.50;;
49942;SDS011;36011;53.362;58.948;2023-04-16T07:16:29;5.07;;;1.15;;
49942;SDS011;36011;53.362;58.948;2023-04-16T07:19:33;3.65;;;1.10;;
49942;SDS011;36011;53.362;58.948;2023-04-16T07:22:38;1.70;;;0.82;;
49942;SDS011;36011;53.362;58.948;2023-04-16T07:25:43;2.85;;;1.00;;
49942;SDS011;36011;53.362;58.948;2023-04-16T07:32:17;3.67;;;0.98;;
49942;SDS011;36011;53.362;58.948;2023-04-16T07:35:23;3.47;;;0.82;;
49942;SDS011;36011;53.362;58.948;2023-04-16T07:38:30;3.75;;;1.40;;
49942;SDS011;36011;53.362;58.948;2023-04-16T07:41:35;2.97;;;1.05;;
49942;SDS011;36011;53.362;58.948;2023-04-16T07:44:38;2.30;;;0.75;;
49942;SDS011;36011;53.362;58.948;2023-04-16T07:47:43;3.13;;;1.40;;
49942;SDS011;36011;53.362;58.948;2023-04-16T07:50:47;3.22;;;1.05;;
49942;SDS011;36011;53.362;58.948;2023-04-16T07:53:52;3.20;;;0.73;;
49942;SDS011;36011;53.362;58.948;2023-04-16T07:56:57;2.13;;;1.13;;
49942;SDS011;36011;53.362;58.948;2023-04-16T08:00:03;0.82;;;0.60;;
49942;SDS011;36011;53.362;58.948;2023-04-16T08:03:07;1.92;;;0.85;;
49942;SDS011;36011;53.362;58.948;2023-04-16T08:06:12;2.78;;;1.05;;
49942;SDS011;36011;53.362;58.948;2023-04-16T08:09:18;2.00;;;0.98;;
49942;SDS011;36011;53.362;58.948;2023-04-16T08:12:23;4.88;;;0.68;;
49942;SDS011;36011;53.362;58.948;2023-04-16T08:15:27;3.83;;;0.80;;
49942;SDS011;36011;53.362;58.948;2023-04-16T08:18:30;3.65;;;0.90;;
49942;SDS011;36011;53.362;58.948;2023-04-16T08:21:34;2.58;;;1.00;;
49942;SDS011;36011;53.362;58.948;2023-04-16T08:24:39;3.58;;;0.95;;
49942;SDS011;36011;53.362;58.948;2023-04-16T08:27:43;1.77;;;0.35;;
49942;SDS011;36011;53.362;58.948;2023-04-16T08:30:47;1.23;;;0.63;;
49942;SDS011;36011;53.362;58.948;2023-04-16T08:33:51;2.78;;;0.82;;
49942;SDS011;36011;53.362;58.948;2023-04-16T08:36:55;4.10;;;0.80;;
49942;SDS011;36011;53.362;58.948;2023-04-16T08:40:00;3.55;;;0.93;;
49942;SDS011;36011;53.362;58.948;2023-04-16T08:43:09;7.80;;;0.98;;
49942;SDS011;36011;53.362;58.948;2023-04-16T08:46:16;2.53;;;0.80;;
49942;SDS011;36011;53.362;58.948;2023-04-16T08:49:24;4.65;;;1.20;;
49942;SDS011;36011;53.362;58.948;2023-04-16T08:52:29;4.57;;;1.15;;
49942;SDS011;36011;53.362;58.948;2023-04-16T08:55:42;2.25;;;0.70;;
49942;SDS011;36011;53.362;58.948;2023-04-16T08:58:53;3.38;;;0.88;;
49942;SDS011;36011;53.362;58.948;2023-04-16T09:01:59;1.85;;;0.70;;
49942;SDS011;36011;53.362;58.948;2023-04-16T09:05:04;1.73;;;0.80;;
49942;SDS011;36011;53.362;58.948;2023-04-16T09:08:11;5.32;;;1.33;;
49942;SDS011;36011;53.362;58.948;2023-04-16T09:11:16;4.78;;;1.58;;
49942;SDS011;36011;53.362;58.948;2023-04-16T09:14:21;3.20;;;1.50;;
49942;SDS011;36011;53.362;58.948;2023-04-16T09:17:25;4.55;;;1.50;;
49942;SDS011;36011;53.362;58.948;2023-04-16T09:20:28;2.50;;;1.20;;
49942;SDS011;36011;53.362;58.948;2023-04-16T09:23:33;3.42;;;1.08;;
49942;SDS011;36011;53.362;58.948;2023-04-16T09:26:39;2.15;;;1.13;;
49942;SDS011;36011;53.362;58.948;2023-04-16T09:29:45;3.60;;;1.67;;
49942;SDS011;36011;53.362;58.948;2023-04-16T09:33:10;3.53;;;1.55;;
49942;SDS011;36011;53.362;58.948;2023-04-16T09:36:24;2.63;;;1.30;;
49942;SDS011;36011;53.362;58.948;2023-04-16T09:39:29;3.83;;;1.52;;
49942;SDS011;36011;53.362;58.948;2023-04-16T09:42:34;5.85;;;1.30;;
49942;SDS011;36011;53.362;58.948;2023-04-16T09:45:52;3.15;;;1.02;;
49942;SDS011;36011;53.362;58.948;2023-04-16T09:48:57;2.65;;;0.93;;
49942;SDS011;36011;53.362;58.948;2023-04-16T09:52:19;2.95;;;1.27;;
49942;SDS011;36011;53.362;58.948;2023-04-16T09:55:27;1.92;;;1.25;;
49942;SDS011;36011;53.362;58.948;2023-04-16T09:58:31;4.63;;;1.10;;
49942;SDS011;36011;53.362;58.948;2023-04-16T10:01:40;1.92;;;0.80;;
49942;SDS011;36011;53.362;58.948;2023-04-16T10:04:49;1.67;;;0.93;;
49942;SDS011;36011;53.362;58.948;2023-04-16T10:07:54;4.30;;;1.40;;
49942;SDS011;36011;53.362;58.948;2023-04-16T10:11:03;3.17;;;1.25;;
49942;SDS011;36011;53.362;58.948;2023-04-16T10:14:07;2.42;;;1.00;;
49942;SDS011;36011;53.362;58.948;2023-04-16T10:17:12;3.42;;;1.13;;
49942;SDS011;36011;53.362;58.948;2023-04-16T10:20:19;3.03;;;1.52;;
49942;SDS011;36011;53.362;58.948;2023-04-16T10:23:25;2.83;;;0.80;;
49942;SDS011;36011;53.362;58.948;2023-04-16T10:26:32;10.23;;;1.27;;
49942;SDS011;36011;53.362;58.948;2023-04-16T10:29:38;2.60;;;0.98;;
49942;SDS011;36011;53.362;58.948;2023-04-16T10:32:42;1.83;;;0.75;;
49942;SDS011;36011;53.362;58.948;2023-04-16T10:35:48;2.33;;;1.05;;
49942;SDS011;36011;53.362;58.948;2023-04-16T10:38:58;2.80;;;1.13;;
49942;SDS011;36011;53.362;58.948;2023-04-16T10:42:08;2.70;;;1.13;;
49942;SDS011;36011;53.362;58.948;2023-04-16T10:45:15;3.80;;;1.40;;
49942;SDS011;36011;53.362;58.948;2023-04-16T10:48:20;1.95;;;1.05;;
49942;SDS011;36011;53.362;58.948;2023-04-16T10:51:28;4.22;;;1.25;;
49942;SDS011;36011;53.362;58.948;2023-04-16T10:54:35;5.65;;;1.17;;
49942;SDS011;36011;53.362;58.948;2023-04-16T10:57:40;3.30;;;1.20;;
49942;SDS011;36011;53.362;58.948;2023-04-16T11:00:48;4.78;;;1.42;;
49942;SDS011;36011;53.362;58.948;2023-04-16T11:03:53;3.55;;;0.95;;
49942;SDS011;36011;53.362;58.948;2023-04-16T11:10:23;5.18;;;1.50;;
49942;SDS011;36011;53.362;58.948;2023-04-16T11:13:27;4.13;;;1.52;;
49942;SDS011;36011;53.362;58.948;2023-04-16T11:16:33;1.63;;;1.05;;
49942;SDS011;36011;53.362;58.948;2023-04-16T11:19:42;2.35;;;1.20;;
49942;SDS011;36011;53.362;58.948;2023-04-16T11:22:49;2.53;;;1.20;;
49942;SDS011;36011;53.362;58.948;2023-04-16T11:25:57;3.05;;;1.17;;
49942;SDS011;36011;53.362;58.948;2023-04-16T11:29:02;2.78;;;1.23;;
49942;SDS011;36011;53.362;58.948;2023-04-16T11:32:19;3.47;;;1.15;;
49942;SDS011;36011;53.362;58.948;2023-04-16T11:35:24;2.47;;;0.90;;
49942;SDS011;36011;53.362;58.948;2023-04-16T11:38:32;2.17;;;0.88;;
49942;SDS011;36011;53.362;58.948;2023-04-16T11:41:45;1.88;;;0.80;;
49942;SDS011;36011;53.362;58.948;2023-04-16T11:44:55;3.13;;;0.85;;
49942;SDS011;36011;53.362;58.948;2023-04-16T11:48:03;1.45;;;1.08;;
49942;SDS011;36011;53.362;58.948;2023-04-16T11:51:09;2.95;;;0.80;;
49942;SDS011;36011;53.362;58.948;2023-04-16T11:54:17;5.07;;;1.20;;
49942;SDS011;36011;53.362;58.948;2023-04-16T11:57:26;1.30;;;0.98;;
49942;SDS011;36011;53.362;58.948;2023-04-16T12:00:33;2.78;;;1.10;;
49942;SDS011;36011;53.362;58.948;2023-04-16T12:03:44;3.47;;;0.77;;
49942;SDS011;36011;53.362;58.948;2023-04-16T12:07:10;3.60;;;1.05;;
49942;SDS011;36011;53.362;58.948;2023-04-16T12:10:16;2.13;;;1.20;;
49942;SDS011;36011;53.362;58.948;2023-04-16T12:13:27;2.25;;;1.20;;
49942;SDS011;36011;53.362;58.948;2023-04-16T12:16:33;2.00;;;0.90;;
49942;SDS011;36011;53.362;58.948;2023-04-16T12:19:46;1.83;;;0.82;;
49942;SDS011;36011;53.362;58.948;2023-04-16T12:23:03;3.65;;;1.67;;
49942;SDS011;36011;53.362;58.948;2023-04-16T12:26:07;2.72;;;1.35;;
49942;SDS011;36011;53.362;58.948;2023-04-16T12:29:19;4.43;;;1.20;;
49942;SDS011;36011;53.362;58.948;2023-04-16T12:32:25;6.68;;;1.38;;
49942;SDS011;36011;53.362;58.948;2023-04-16T12:35:29;1.88;;;1.10;;
49942;SDS011;36011;53.362;58.948;2023-04-16T12:38:35;2.90;;;1.05;;
49942;SDS011;36011;53.362;58.948;2023-04-16T12:41:39;3.72;;;1.40;;
49942;SDS011;36011;53.362;58.948;2023-04-16T12:44:45;4.65;;;1.30;;
49942;SDS011;36011;53.362;58.948;2023-04-16T12:47:50;1.00;;;0.90;;
49942;SDS011;36011;53.362;58.948;2023-04-16T12:50:54;3.20;;;1.17;;
49942;SDS011;36011;53.362;58.948;2023-04-16T12:53:57;4.05;;;1.40;;
49942;SDS011;36011;53.362;58.948;2023-04-16T12:57:00;4.88;;;1.15;;
49942;SDS011;36011;53.362;58.948;2023-04-16T13:00:05;5.25;;;1.92;;
49942;SDS011;36011;53.362;58.948;2023-04-16T13:03:10;6.38;;;2.85;;
49942;SDS011;36011;53.362;58.948;2023-04-16T13:06:13;5.93;;;2.10;;
49942;SDS011;36011;53.362;58.948;2023-04-16T13:09:18;3.33;;;1.63;;
49942;SDS011;36011;53.362;58.948;2023-04-16T13:12:22;4.60;;;2.30;;
49942;SDS011;36011;53.362;58.948;2023-04-16T13:15:25;7.22;;;1.77;;
49942;SDS011;36011;53.362;58.948;2023-04-16T13:18:29;2.60;;;1.23;;
49942;SDS011;36011;53.362;58.948;2023-04-16T13:21:34;8.13;;;1.75;;
49942;SDS011;36011;53.362;58.948;2023-04-16T13:24:38;2.55;;;1.05;;
49942;SDS011;36011;53.362;58.948;2023-04-16T13:27:43;2.65;;;1.45;;
49942;SDS011;36011;53.362;58.948;2023-04-16T13:30:47;4.07;;;1.63;;
49942;SDS011;36011;53.362;58.948;2023-04-16T13:33:52;3.83;;;2.42;;
49942;SDS011;36011;53.362;58.948;2023-04-16T13:36:55;5.88;;;2.25;;
49942;SDS011;36011;53.362;58.948;2023-04-16T13:40:00;3.58;;;1.48;;
49942;SDS011;36011;53.362;58.948;2023-04-16T13:43:06;4.78;;;1.70;;
49942;SDS011;36011;53.362;58.948;2023-04-16T13:46:10;4.18;;;1.67;;
49942;SDS011;36011;53.362;58.948;2023-04-16T13:49:13;2.22;;;1.15;;
49942;SDS011;36011;53.362;58.948;2023-04-16T13:52:16;2.75;;;1.45;;
49942;SDS011;36011;53.362;58.948;2023-04-16T13:55:21;3.95;;;1.88;;
49942;SDS011;36011;53.362;58.948;2023-04-16T13:58:26;4.53;;;2.03;;
49942;SDS011;36011;53.362;58.948;2023-04-16T14:01:31;6.35;;;1.90;;
49942;SDS011;36011;53.362;58.948;2023-04-16T14:04:36;6.18;;;1.73;;
49942;SDS011;36011;53.362;58.948;2023-04-16T14:07:44;2.10;;;1.70;;
49942;SDS011;36011;53.362;58.948;2023-04-16T14:10:48;5.32;;;1.60;;
49942;SDS011;36011;53.362;58.948;2023-04-16T14:13:52;6.28;;;1.77;;
49942;SDS011;36011;53.362;58.948;2023-04-16T14:16:58;4.55;;;2.10;;
49942;SDS011;36011;53.362;58.948;2023-04-16T14:20:05;4.68;;;2.08;;
49942;SDS011;36011;53.362;58.948;2023-04-16T14:23:07;7.13;;;2.17;;
49942;SDS011;36011;53.362;58.948;2023-04-16T14:26:13;3.05;;;1.73;;
49942;SDS011;36011;53.362;58.948;2023-04-16T14:29:17;4.07;;;2.08;;
49942;SDS011;36011;53.362;58.948;2023-04-16T14:35:24;4.38;;;1.77;;
49942;SDS011;36011;53.362;58.948;2023-04-16T14:41:31;3.78;;;2.05;;
49942;SDS011;36011;53.362;58.948;2023-04-16T14:47:38;4.72;;;2.33;;
49942;SDS011;36011;53.362;58.948;2023-04-16T14:50:46;4.47;;;2.38;;
49942;SDS011;36011;53.362;58.948;2023-04-16T14:53:51;3.17;;;2.25;;
49942;SDS011;36011;53.362;58.948;2023-04-16T14:56:57;7.25;;;2.38;;
49942;SDS011;36011;53.362;58.948;2023-04-16T15:00:04;8.90;;;2.72;;
49942;SDS011;36011;53.362;58.948;2023-04-16T15:03:11;5.93;;;2.55;;
49942;SDS011;36011;53.362;58.948;2023-04-16T15:06:16;7.60;;;2.40;;
49942;SDS011;36011;53.362;58.948;2023-04-16T15:09:19;5.00;;;2.45;;
49942;SDS011;36011;53.362;58.948;2023-04-16T15:12:24;13.70;;;3.40;;
49942;SDS011;36011;53.362;58.948;2023-04-16T15:15:29;4.35;;;2.85;;
49942;SDS011;36011;53.362;58.948;2023-04-16T15:18:34;4.60;;;2.47;;
49942;SDS011;36011;53.362;58.948;2023-04-16T15:21:39;4.43;;;2.17;;
49942;SDS011;36011;53.362;58.948;2023-04-16T15:24:44;4.72;;;2.17;;
49942;SDS011;36011;53.362;58.948;2023-04-16T15:27:49;4.68;;;2.08;;
49942;SDS011;36011;53.362;58.948;2023-04-16T15:30:55;4.38;;;2.25;;
49942;SDS011;36011;53.362;58.948;2023-04-16T15:34:00;9.00;;;2.17;;
49942;SDS011;36011;53.362;58.948;2023-04-16T15:37:05;8.95;;;3.28;;
49942;SDS011;36011;53.362;58.948;2023-04-16T15:40:10;7.78;;;2.60;;
49942;SDS011;36011;53.362;58.948;2023-04-16T15:43:17;5.75;;;2.53;;
49942;SDS011;36011;53.362;58.948;2023-04-16T15:49:24;11.88;;;4.72;;
49942;SDS011;36011;53.362;58.948;2023-04-16T15:55:33;5.07;;;2.13;;
49942;SDS011;36011;53.362;58.948;2023-04-16T15:58:37;11.88;;;3.25;;
49942;SDS011;36011;53.362;58.948;2023-04-16T16:01:40;5.90;;;2.40;;
49942;SDS011;36011;53.362;58.948;2023-04-16T16:04:46;8.90;;;2.78;;
49942;SDS011;36011;53.362;58.948;2023-04-16T16:10:54;9.27;;;2.72;;
49942;SDS011;36011;53.362;58.948;2023-04-16T16:13:59;6.70;;;2.60;;
49942;SDS011;36011;53.362;58.948;2023-04-16T16:20:06;9.10;;;3.42;;
49942;SDS011;36011;53.362;58.948;2023-04-16T16:23:13;16.63;;;4.95;;
49942;SDS011;36011;53.362;58.948;2023-04-16T16:29:19;11.27;;;5.53;;
49942;SDS011;36011;53.362;58.948;2023-04-16T16:32:23;15.10;;;6.22;;
49942;SDS011;36011;53.362;58.948;2023-04-16T16:35:28;14.13;;;5.57;;
49942;SDS011;36011;53.362;58.948;2023-04-16T16:38:33;7.90;;;4.78;;
49942;SDS011;36011;53.362;58.948;2023-04-16T16:41:37;7.80;;;4.45;;
49942;SDS011;36011;53.362;58.948;2023-04-16T16:44:43;10.10;;;4.43;;
49942;SDS011;36011;53.362;58.948;2023-04-16T16:47:50;10.07;;;4.38;;
49942;SDS011;36011;53.362;58.948;2023-04-16T16:50:55;7.60;;;4.22;;
49942;SDS011;36011;53.362;58.948;2023-04-16T16:53:59;10.43;;;3.75;;
49942;SDS011;36011;53.362;58.948;2023-04-16T17:00:06;6.05;;;3.33;;
49942;SDS011;36011;53.362;58.948;2023-04-16T17:03:13;9.60;;;3.72;;
49942;SDS011;36011;53.362;58.948;2023-04-16T17:06:19;12.00;;;3.63;;
49942;SDS011;36011;53.362;58.948;2023-04-16T17:09:23;9.30;;;3.75;;
49942;SDS011;36011;53.362;58.948;2023-04-16T17:12:28;7.18;;;3.13;;
49942;SDS011;36011;53.362;58.948;2023-04-16T17:15:32;8.73;;;3.10;;
49942;SDS011;36011;53.362;58.948;2023-04-16T17:18:37;7.10;;;3.58;;
49942;SDS011;36011;53.362;58.948;2023-04-16T17:21:42;8.63;;;3.35;;
49942;SDS011;36011;53.362;58.948;2023-04-16T17:24:47;6.20;;;3.42;;
49942;SDS011;36011;53.362;58.948;2023-04-16T17:27:54;11.43;;;2.92;;
49942;SDS011;36011;53.362;58.948;2023-04-16T17:34:02;5.65;;;2.80;;
49942;SDS011;36011;53.362;58.948;2023-04-16T17:37:08;3.78;;;2.78;;
49942;SDS011;36011;53.362;58.948;2023-04-16T17:40:13;8.98;;;2.75;;
49942;SDS011;36011;53.362;58.948;2023-04-16T17:43:19;5.00;;;2.10;;
49942;SDS011;36011;53.362;58.948;2023-04-16T17:46:21;6.35;;;2.47;;
49942;SDS011;36011;53.362;58.948;2023-04-16T17:52:29;4.72;;;2.17;;
49942;SDS011;36011;53.362;58.948;2023-04-16T17:58:37;7.95;;;3.10;;
49942;SDS011;36011;53.362;58.948;2023-04-16T18:01:42;17.40;;;4.05;;
49942;SDS011;36011;53.362;58.948;2023-04-16T18:04:47;14.40;;;4.53;;
49942;SDS011;36011;53.362;58.948;2023-04-16T18:07:50;17.48;;;4.90;;
49942;SDS011;36011;53.362;58.948;2023-04-16T18:10:56;18.73;;;4.75;;
49942;SDS011;36011;53.362;58.948;2023-04-16T18:14:01;14.02;;;4.35;;
49942;SDS011;36011;53.362;58.948;2023-04-16T18:20:08;9.27;;;3.35;;
49942;SDS011;36011;53.362;58.948;2023-04-16T18:23:14;11.68;;;3.50;;
49942;SDS011;36011;53.362;58.948;2023-04-16T18:26:18;16.17;;;4.57;;
49942;SDS011;36011;53.362;58.948;2023-04-16T18:29:21;8.63;;;3.35;;
49942;SDS011;36011;53.362;58.948;2023-04-16T18:32:25;14.82;;;3.78;;
49942;SDS011;36011;53.362;58.948;2023-04-16T18:38:34;6.82;;;2.53;;
49942;SDS011;36011;53.362;58.948;2023-04-16T18:41:39;6.63;;;2.40;;
49942;SDS011;36011;53.362;58.948;2023-04-16T18:44:49;5.40;;;2.00;;
49942;SDS011;36011;53.362;58.948;2023-04-16T18:47:54;4.55;;;1.88;;
49942;SDS011;36011;53.362;58.948;2023-04-16T18:51:04;5.57;;;2.35;;
49942;SDS011;36011;53.362;58.948;2023-04-16T18:54:09;6.43;;;2.45;;
49942;SDS011;36011;53.362;58.948;2023-04-16T18:57:14;9.63;;;3.40;;
49942;SDS011;36011;53.362;58.948;2023-04-16T19:00:17;7.90;;;3.30;;
49942;SDS011;36011;53.362;58.948;2023-04-16T19:03:23;13.10;;;3.20;;
49942;SDS011;36011;53.362;58.948;2023-04-16T19:06:29;10.25;;;3.35;;
49942;SDS011;36011;53.362;58.948;2023-04-16T19:09:34;9.82;;;3.30;;
49942;SDS011;36011;53.362;58.948;2023-04-16T19:12:37;14.02;;;3.55;;
49942;SDS011;36011;53.362;58.948;2023-04-16T19:15:42;12.38;;;3.35;;